createdAt,value
2023-05-20T00:00:16.826Z,2.80
2023-05-20T00:01:17.147Z,2.50
2023-05-20T00:02:17.494Z,2.50
2023-05-20T00:03:17.975Z,2.40
2023-05-20T00:04:18.461Z,2.40
2023-05-20T00:05:18.341Z,2.40
2023-05-20T00:06:18.641Z,2.60
2023-05-20T00:07:18.951Z,2.30
2023-05-20T00:08:19.276Z,2.70
2023-05-20T00:09:19.580Z,2.20
2023-05-20T00:10:19.877Z,2.30
2023-05-20T00:11:20.199Z,2.40
2023-05-20T00:12:20.542Z,1.90
2023-05-20T00:13:20.835Z,2.30
2023-05-20T00:14:21.127Z,2.20
2023-05-20T00:15:22.393Z,2.40
2023-05-20T00:16:21.824Z,2.60
2023-05-20T00:17:22.111Z,2.40
2023-05-20T00:18:22.434Z,2.50
2023-05-20T00:19:22.884Z,2.30
2023-05-20T00:20:23.006Z,2.40
2023-05-20T00:21:23.332Z,2.40
2023-05-20T00:22:23.629Z,2.40
2023-05-20T00:23:23.957Z,2.30
2023-05-20T00:24:24.256Z,2.50
2023-05-20T00:25:24.572Z,2.50
2023-05-20T00:26:24.879Z,2.10
2023-05-20T00:27:25.174Z,2.40
2023-05-20T00:28:25.484Z,2.20
2023-05-20T00:29:25.807Z,2.40
2023-05-20T00:30:26.131Z,2.40
2023-05-20T00:31:26.448Z,2.40
2023-05-20T00:32:27.007Z,2.70
2023-05-20T00:33:27.052Z,2.30
2023-05-20T00:34:27.367Z,2.60
2023-05-20T00:35:27.671Z,2.50
2023-05-20T00:36:27.980Z,2.80
2023-05-20T00:37:28.275Z,2.70
2023-05-20T00:38:28.603Z,2.70
2023-05-20T00:39:28.904Z,3.10
2023-05-20T00:40:29.218Z,2.90
2023-05-20T00:41:29.566Z,2.60
2023-05-20T00:42:29.840Z,3.00
2023-05-20T00:43:30.142Z,2.80
2023-05-20T00:44:30.457Z,3.00
2023-05-20T00:45:30.759Z,3.00
2023-05-20T00:46:31.161Z,3.10
2023-05-20T00:47:31.410Z,3.40
2023-05-20T00:48:31.697Z,3.00
2023-05-20T00:49:32.004Z,3.50
2023-05-20T00:50:32.314Z,3.30
2023-05-20T00:51:32.606Z,3.30
2023-05-20T00:52:32.915Z,3.10
2023-05-20T00:53:33.233Z,3.50
2023-05-20T00:54:33.545Z,3.40
2023-05-20T00:55:34.001Z,3.60
2023-05-20T00:56:34.227Z,3.30
2023-05-20T00:57:34.533Z,3.70
2023-05-20T00:58:34.895Z,3.50
2023-05-20T00:59:35.156Z,3.30
2023-05-20T01:00:35.506Z,4.00
2023-05-20T01:01:35.828Z,3.80
2023-05-20T01:02:36.214Z,3.40
2023-05-20T01:03:36.462Z,4.00
2023-05-20T01:04:36.734Z,3.90
2023-05-20T01:05:39.158Z,4.10
2023-05-20T01:06:37.333Z,4.00
2023-05-20T01:07:37.645Z,3.90
2023-05-20T01:08:37.951Z,4.00
2023-05-20T01:09:38.244Z,3.70
2023-05-20T01:10:38.563Z,4.10
2023-05-20T01:11:38.877Z,4.00
2023-05-20T01:12:39.194Z,4.10
2023-05-20T01:13:39.523Z,3.90
2023-05-20T01:14:39.835Z,4.50
2023-05-20T01:15:40.175Z,4.50
2023-05-20T01:16:40.570Z,4.60
2023-05-20T01:17:40.741Z,4.90
2023-05-20T01:18:41.113Z,4.60
2023-05-20T01:19:41.265Z,5.10
2023-05-20T01:20:41.579Z,4.90
2023-05-20T01:21:41.879Z,4.80
2023-05-20T01:22:42.164Z,4.80
2023-05-20T01:23:42.464Z,5.20
2023-05-20T01:24:42.775Z,4.60
2023-05-20T01:25:43.083Z,5.00
2023-05-20T01:26:43.398Z,4.50
2023-05-20T01:27:43.709Z,4.90
2023-05-20T01:28:44.023Z,4.70
2023-05-20T01:29:44.333Z,5.40
2023-05-20T01:30:44.639Z,5.40
2023-05-20T01:31:44.925Z,5.60
2023-05-20T01:32:45.288Z,5.20
2023-05-20T01:33:46.472Z,5.60
2023-05-20T01:34:45.833Z,5.40
2023-05-20T01:35:46.125Z,5.30
2023-05-20T01:36:46.433Z,5.00
2023-05-20T01:37:46.702Z,5.70
2023-05-20T01:38:47.061Z,5.30
2023-05-20T01:39:47.353Z,5.50
2023-05-20T01:40:47.732Z,5.70
2023-05-20T01:41:48.014Z,5.30
2023-05-20T01:42:48.296Z,5.50
2023-05-20T01:43:48.608Z,5.50
2023-05-20T01:44:48.913Z,5.80
2023-05-20T01:45:49.229Z,5.30
2023-05-20T01:46:49.514Z,5.90
2023-05-20T01:47:49.822Z,5.90
2023-05-20T01:48:50.110Z,5.80
2023-05-20T01:49:50.407Z,5.20
2023-05-20T01:50:50.727Z,5.70
2023-05-20T01:51:51.026Z,5.40
2023-05-20T01:52:51.357Z,6.20
2023-05-20T01:53:51.681Z,5.90
2023-05-20T01:54:52.005Z,6.10
2023-05-20T01:55:52.300Z,5.40
2023-05-20T01:56:52.630Z,5.30
2023-05-20T01:57:52.920Z,5.70
2023-05-20T01:58:53.199Z,5.80
2023-05-20T01:59:53.514Z,5.40
2023-05-20T02:00:53.900Z,5.70
2023-05-20T02:01:54.179Z,5.40
2023-05-20T02:02:54.506Z,5.70
2023-05-20T02:03:54.786Z,5.50
2023-05-20T02:04:55.140Z,6.10
2023-05-20T02:05:55.464Z,5.70
2023-05-20T02:06:55.767Z,6.00
2023-05-20T02:07:56.073Z,5.40
2023-05-20T02:08:56.417Z,5.70
2023-05-20T02:09:56.705Z,5.40
2023-05-20T02:10:56.994Z,5.80
2023-05-20T02:11:57.294Z,5.50
2023-05-20T02:12:57.615Z,5.40
2023-05-20T02:13:57.921Z,6.10
2023-05-20T02:14:58.235Z,5.80
2023-05-20T02:15:58.620Z,5.70
2023-05-20T02:16:58.917Z,5.40
2023-05-20T02:17:59.267Z,5.50
2023-05-20T02:18:59.629Z,5.90
2023-05-20T02:19:59.898Z,5.90
2023-05-20T02:21:00.203Z,6.00
2023-05-20T02:22:00.515Z,6.00
2023-05-20T02:23:00.848Z,5.40
2023-05-20T02:24:01.171Z,5.60
2023-05-20T02:25:01.478Z,5.60
2023-05-20T02:26:01.777Z,5.60
2023-05-20T02:27:02.169Z,6.10
2023-05-20T02:28:02.426Z,6.10
2023-05-20T02:29:02.748Z,5.60
2023-05-20T02:30:03.045Z,5.50
2023-05-20T02:31:03.364Z,5.80
2023-05-20T02:32:03.689Z,5.20
2023-05-20T02:33:04.015Z,5.40
2023-05-20T02:34:04.355Z,5.30
2023-05-20T02:35:04.659Z,5.90
2023-05-20T02:36:04.992Z,5.70
2023-05-20T02:37:05.282Z,6.40
2023-05-20T02:38:05.600Z,5.90
2023-05-20T02:39:05.921Z,5.50
2023-05-20T02:40:06.221Z,5.50
2023-05-20T02:41:06.538Z,5.60
2023-05-20T02:42:06.798Z,5.30
2023-05-20T02:43:07.104Z,5.60
2023-05-20T02:44:07.429Z,5.30
2023-05-20T02:45:07.723Z,5.80
2023-05-20T02:46:08.063Z,5.80
2023-05-20T02:47:08.347Z,6.00
2023-05-20T02:48:08.740Z,5.90
2023-05-20T02:49:08.994Z,5.40
2023-05-20T02:50:09.310Z,5.70
2023-05-20T02:51:09.626Z,5.50
2023-05-20T02:52:09.976Z,6.00
2023-05-20T02:53:10.279Z,5.90
2023-05-20T02:54:10.598Z,5.90
2023-05-20T02:55:10.898Z,5.40
2023-05-20T02:56:11.232Z,6.20
2023-05-20T02:57:11.527Z,6.30
2023-05-20T02:58:11.854Z,5.50
2023-05-20T02:59:12.154Z,5.50
2023-05-20T03:00:12.477Z,5.60
2023-05-20T03:01:12.829Z,5.40
2023-05-20T03:02:13.139Z,5.00
2023-05-20T03:03:13.410Z,6.30
2023-05-20T03:04:13.787Z,5.90
2023-05-20T03:05:14.059Z,6.10
2023-05-20T03:06:14.374Z,5.50
2023-05-20T03:07:14.691Z,5.70
2023-05-20T03:08:14.996Z,5.20
2023-05-20T03:09:15.310Z,5.50
2023-05-20T03:10:15.613Z,5.30
2023-05-20T03:11:15.906Z,5.80
2023-05-20T03:12:16.267Z,5.50
2023-05-20T03:13:16.533Z,5.10
2023-05-20T03:14:16.860Z,5.30
2023-05-20T03:15:17.156Z,5.70
2023-05-20T03:16:17.483Z,6.00
2023-05-20T03:17:17.763Z,5.10
2023-05-20T03:18:18.075Z,5.30
2023-05-20T03:19:18.397Z,5.80
2023-05-20T03:20:18.707Z,5.40
2023-05-20T03:21:18.948Z,5.20
2023-05-20T03:22:19.262Z,5.40
2023-05-20T03:23:19.559Z,5.90
2023-05-20T03:24:19.883Z,6.00
2023-05-20T03:25:20.179Z,5.20
2023-05-20T03:26:20.567Z,5.20
2023-05-20T03:27:20.829Z,5.40
2023-05-20T03:28:21.150Z,5.20
2023-05-20T03:29:21.423Z,5.10
2023-05-20T03:30:21.735Z,5.40
2023-05-20T03:31:22.097Z,5.70
2023-05-20T03:32:22.438Z,5.40
2023-05-20T03:33:22.743Z,5.30
2023-05-20T03:34:23.032Z,5.50
2023-05-20T03:35:23.314Z,5.80
2023-05-20T03:36:23.642Z,4.60
2023-05-20T03:37:24.094Z,5.40
2023-05-20T03:38:24.249Z,4.90
2023-05-20T03:39:24.565Z,5.00
2023-05-20T03:40:24.884Z,5.30
2023-05-20T03:41:25.192Z,5.40
2023-05-20T03:42:25.521Z,5.20
2023-05-20T03:43:25.839Z,5.50
2023-05-20T03:44:26.165Z,5.30
2023-05-20T03:45:26.487Z,5.30
2023-05-20T03:46:26.833Z,5.60
2023-05-20T03:47:27.182Z,5.50
2023-05-20T03:48:27.379Z,5.30
2023-05-20T03:49:27.695Z,5.70
2023-05-20T03:50:28.025Z,4.90
2023-05-20T03:51:28.288Z,5.10
2023-05-20T03:52:28.616Z,4.70
2023-05-20T03:53:29.872Z,5.30
2023-05-20T03:54:29.250Z,5.20
2023-05-20T03:55:29.553Z,5.10
2023-05-20T03:56:29.878Z,5.70
2023-05-20T03:57:30.193Z,5.30
2023-05-20T03:58:30.514Z,5.50
2023-05-20T03:59:30.829Z,5.50
2023-05-20T04:00:31.154Z,5.40
2023-05-20T04:01:31.461Z,5.00
2023-05-20T04:02:31.854Z,5.10
2023-05-20T04:03:32.120Z,5.10
2023-05-20T04:04:32.359Z,5.20
2023-05-20T04:05:32.741Z,5.30
2023-05-20T04:06:32.942Z,5.20
2023-05-20T04:07:33.240Z,5.20
2023-05-20T04:08:33.568Z,5.40
2023-05-20T04:09:33.890Z,4.80
2023-05-20T04:10:34.208Z,5.00
2023-05-20T04:11:34.442Z,5.30
2023-05-20T04:12:34.767Z,4.90
2023-05-20T04:13:35.097Z,5.30
2023-05-20T04:14:35.429Z,4.90
2023-05-20T04:15:35.965Z,5.30
2023-05-20T04:16:36.059Z,4.80
2023-05-20T04:17:36.290Z,4.80
2023-05-20T04:18:36.589Z,4.80
2023-05-20T04:19:36.893Z,4.80
2023-05-20T04:20:37.224Z,5.40
2023-05-20T04:21:37.547Z,5.10
2023-05-20T04:22:37.875Z,5.20
2023-05-20T04:23:38.195Z,4.50
2023-05-20T04:24:38.469Z,4.70
2023-05-20T04:25:39.058Z,4.60
2023-05-20T04:26:39.147Z,5.00
2023-05-20T04:27:39.348Z,5.20
2023-05-20T04:28:39.681Z,5.00
2023-05-20T04:29:40.012Z,4.90
2023-05-20T04:30:40.328Z,5.00
2023-05-20T04:31:40.722Z,5.50
2023-05-20T04:32:41.013Z,4.50
2023-05-20T04:33:41.354Z,4.60
2023-05-20T04:34:41.680Z,5.10
2023-05-20T04:35:41.989Z,4.90
2023-05-20T04:36:42.320Z,4.80
2023-05-20T04:37:42.739Z,4.80
2023-05-20T04:38:42.881Z,4.70
2023-05-20T04:39:43.216Z,5.50
2023-05-20T04:40:43.560Z,4.80
2023-05-20T04:41:43.872Z,4.60
2023-05-20T04:42:44.204Z,4.90
2023-05-20T04:43:44.514Z,4.80
2023-05-20T04:44:44.862Z,4.30
2023-05-20T04:45:45.220Z,4.70
2023-05-20T04:46:45.512Z,4.70
2023-05-20T04:47:45.984Z,4.50
2023-05-20T04:48:46.223Z,4.60
2023-05-20T04:49:46.580Z,4.90
2023-05-20T04:50:46.871Z,4.70
2023-05-20T04:51:47.176Z,4.50
2023-05-20T04:52:47.510Z,5.20
2023-05-20T04:53:47.822Z,4.50
2023-05-20T04:54:48.157Z,4.80
2023-05-20T04:55:48.466Z,4.80
2023-05-20T04:56:48.788Z,4.80
2023-05-20T04:57:49.107Z,4.20
2023-05-20T04:58:49.436Z,4.90
2023-05-20T04:59:49.762Z,4.30
2023-05-20T05:00:50.082Z,4.60
2023-05-20T05:01:50.420Z,4.50
2023-05-20T05:02:50.763Z,5.00
2023-05-20T05:03:50.956Z,4.40
2023-05-20T05:04:51.346Z,4.40
2023-05-20T05:05:51.641Z,4.80
2023-05-20T05:06:51.956Z,4.60
2023-05-20T05:07:52.273Z,4.10
2023-05-20T05:08:52.611Z,4.60
2023-05-20T05:09:52.938Z,4.70
2023-05-20T05:10:53.226Z,4.40
2023-05-20T05:11:53.543Z,4.70
2023-05-20T05:12:53.883Z,4.50
2023-05-20T05:13:54.202Z,4.80
2023-05-20T05:14:54.527Z,4.20
2023-05-20T05:15:54.872Z,4.50
2023-05-20T05:16:55.762Z,4.50
2023-05-20T05:17:55.556Z,4.60
2023-05-20T05:18:55.777Z,4.50
2023-05-20T05:19:56.130Z,4.40
2023-05-20T05:20:56.455Z,4.70
2023-05-20T05:21:56.760Z,4.10
2023-05-20T05:22:57.087Z,4.20
2023-05-20T05:23:58.385Z,4.80
2023-05-20T05:24:57.726Z,4.50
2023-05-20T05:25:58.063Z,4.60
2023-05-20T05:26:58.384Z,4.30
2023-05-20T05:27:58.714Z,4.10
2023-05-20T05:28:59.076Z,4.30
2023-05-20T05:29:59.393Z,4.70
2023-05-20T05:30:59.740Z,4.80
2023-05-20T05:32:00.130Z,4.20
2023-05-20T05:33:00.515Z,4.40
2023-05-20T05:34:00.724Z,4.50
2023-05-20T05:35:01.054Z,4.40
2023-05-20T05:36:01.363Z,4.30
2023-05-20T05:37:01.698Z,4.50
2023-05-20T05:38:02.012Z,4.30
2023-05-20T05:39:02.343Z,4.50
2023-05-20T05:40:02.672Z,4.40
2023-05-20T05:41:03.012Z,4.20
2023-05-20T05:42:03.320Z,4.30
2023-05-20T05:43:03.619Z,4.50
2023-05-20T05:44:03.898Z,4.30
2023-05-20T05:45:04.179Z,4.30
2023-05-20T05:46:04.495Z,4.50
2023-05-20T05:47:04.870Z,4.50
2023-05-20T05:48:05.224Z,4.30
2023-05-20T05:49:05.432Z,4.40
2023-05-20T05:50:05.749Z,3.70
2023-05-20T05:51:06.096Z,4.30
2023-05-20T05:52:06.414Z,3.80
2023-05-20T05:53:06.773Z,3.70
2023-05-20T05:54:06.951Z,4.20
2023-05-20T05:55:07.273Z,4.40
2023-05-20T05:56:07.571Z,4.10
2023-05-20T05:57:07.907Z,4.60
2023-05-20T05:58:08.178Z,4.30
2023-05-20T05:59:08.500Z,4.20
2023-05-20T06:00:08.825Z,4.30
2023-05-20T06:01:09.151Z,4.20
2023-05-20T06:02:09.403Z,4.10
2023-05-20T06:03:09.812Z,4.30
2023-05-20T06:04:10.005Z,4.10
2023-05-20T06:05:10.330Z,3.80
2023-05-20T06:06:10.639Z,4.10
2023-05-20T06:07:10.972Z,4.40
2023-05-20T06:08:11.289Z,4.30
2023-05-20T06:09:11.622Z,3.90
2023-05-20T06:10:11.946Z,4.40
2023-05-20T06:11:12.302Z,4.30
2023-05-20T06:12:13.949Z,4.50
2023-05-20T06:13:12.799Z,3.80
2023-05-20T06:14:13.131Z,4.00
2023-05-20T06:15:13.444Z,4.30
2023-05-20T06:16:13.818Z,3.80
2023-05-20T06:17:14.121Z,3.70
2023-05-20T06:18:14.436Z,3.90
2023-05-20T06:19:14.805Z,3.80
2023-05-20T06:20:15.087Z,4.10
2023-05-20T06:21:15.372Z,3.80
2023-05-20T06:22:15.695Z,4.20
2023-05-20T06:23:16.037Z,4.20
2023-05-20T06:24:16.336Z,3.90
2023-05-20T06:25:16.655Z,3.50
2023-05-20T06:26:16.973Z,4.10
2023-05-20T06:27:17.306Z,3.30
2023-05-20T06:28:17.623Z,3.90
2023-05-20T06:29:17.962Z,4.30
2023-05-20T06:30:18.180Z,4.50
2023-05-20T06:31:18.521Z,3.80
2023-05-20T06:32:18.833Z,3.80
2023-05-20T06:33:19.172Z,4.10
2023-05-20T06:34:19.477Z,3.80
2023-05-20T06:35:19.816Z,4.10
2023-05-20T06:36:20.145Z,4.20
2023-05-20T06:37:20.503Z,4.20
2023-05-20T06:38:20.870Z,4.10
2023-05-20T06:39:21.084Z,3.80
2023-05-20T06:40:21.412Z,3.80
2023-05-20T06:41:21.722Z,3.50
2023-05-20T06:42:22.063Z,4.00
2023-05-20T06:43:22.386Z,3.90
2023-05-20T06:44:22.715Z,3.80
2023-05-20T06:45:23.043Z,3.90
2023-05-20T06:46:23.375Z,3.80
2023-05-20T06:47:23.708Z,4.00
2023-05-20T06:48:24.013Z,3.90
2023-05-20T06:49:24.346Z,3.40
2023-05-20T06:50:24.658Z,3.90
2023-05-20T06:51:24.983Z,4.10
2023-05-20T06:52:25.309Z,4.10
2023-05-20T06:53:25.628Z,3.70
2023-05-20T06:54:25.988Z,3.90
2023-05-20T06:55:26.321Z,3.40
2023-05-20T06:56:26.627Z,4.10
2023-05-20T06:57:26.951Z,3.70
2023-05-20T06:58:27.255Z,3.70
2023-05-20T06:59:27.561Z,3.70
2023-05-20T07:00:27.871Z,3.80
2023-05-20T07:01:28.192Z,3.90
2023-05-20T07:02:28.520Z,3.50
2023-05-20T07:03:28.823Z,3.70
2023-05-20T07:04:29.130Z,3.60
2023-05-20T07:05:29.431Z,3.90
2023-05-20T07:06:29.736Z,3.90
2023-05-20T07:07:30.050Z,3.90
2023-05-20T07:08:30.388Z,3.40
2023-05-20T07:09:30.710Z,3.70
2023-05-20T07:10:31.058Z,4.10
2023-05-20T07:11:31.339Z,3.90
2023-05-20T07:12:31.688Z,3.70
2023-05-20T07:13:32.023Z,3.20
2023-05-20T07:14:32.355Z,3.70
2023-05-20T07:15:33.031Z,3.60
2023-05-20T07:16:33.120Z,4.00
2023-05-20T07:17:33.270Z,3.60
2023-05-20T07:18:33.602Z,3.60
2023-05-20T07:19:33.940Z,3.50
2023-05-20T07:20:34.236Z,3.80
2023-05-20T07:21:34.553Z,3.40
2023-05-20T07:22:34.882Z,3.40
2023-05-20T07:23:35.189Z,3.50
2023-05-20T07:24:35.453Z,3.40
2023-05-20T07:25:35.907Z,3.50
2023-05-20T07:26:36.090Z,3.70
2023-05-20T07:27:36.373Z,3.90
2023-05-20T07:28:36.687Z,3.90
2023-05-20T07:29:37.003Z,3.50
2023-05-20T07:30:37.315Z,3.40
2023-05-20T07:31:37.708Z,3.50
2023-05-20T07:32:37.993Z,3.30
2023-05-20T07:33:38.274Z,3.40
2023-05-20T07:34:38.585Z,3.20
2023-05-20T07:35:38.852Z,3.40
2023-05-20T07:36:39.186Z,3.10
2023-05-20T07:37:39.522Z,3.10
2023-05-20T07:38:41.286Z,3.60
2023-05-20T07:39:41.125Z,3.40
2023-05-20T07:40:40.371Z,3.30
2023-05-20T07:41:40.667Z,3.50
2023-05-20T07:42:40.980Z,3.00
2023-05-20T07:43:41.286Z,3.30
2023-05-20T07:44:41.622Z,2.90
2023-05-20T07:45:41.961Z,3.20
2023-05-20T07:46:42.328Z,3.50
2023-05-20T07:47:42.521Z,3.30
2023-05-20T07:48:42.812Z,3.60
2023-05-20T07:49:43.111Z,3.30
2023-05-20T07:50:43.437Z,3.00
2023-05-20T07:51:43.743Z,3.20
2023-05-20T07:52:55.290Z,3.50
2023-05-20T07:53:45.353Z,3.50
2023-05-20T07:54:44.618Z,3.40
2023-05-20T07:55:44.898Z,3.10
2023-05-20T07:56:45.225Z,3.20
2023-05-20T07:57:45.525Z,3.10
2023-05-20T07:58:45.840Z,3.40
2023-05-20T07:59:46.115Z,3.10
2023-05-20T08:00:46.420Z,3.30
2023-05-20T08:01:46.740Z,3.50
2023-05-20T08:02:47.129Z,2.80
2023-05-20T08:03:47.378Z,3.20
2023-05-20T08:04:47.550Z,3.20
2023-05-20T08:05:47.864Z,3.20
2023-05-20T08:06:48.194Z,3.00
2023-05-20T08:07:48.503Z,3.00
2023-05-20T08:08:48.815Z,3.10
2023-05-20T08:09:49.125Z,3.10
2023-05-20T08:10:49.441Z,3.30
2023-05-20T08:11:49.738Z,3.40
2023-05-20T08:12:50.031Z,3.00
2023-05-20T08:13:50.331Z,3.20
2023-05-20T08:14:50.655Z,3.10
2023-05-20T08:15:50.963Z,3.60
2023-05-20T08:16:53.869Z,2.90
2023-05-20T08:17:51.660Z,2.90
2023-05-20T08:18:51.898Z,2.80
2023-05-20T08:19:52.113Z,3.20
2023-05-20T08:20:52.447Z,2.80
2023-05-20T08:21:52.755Z,3.20
2023-05-20T08:22:53.038Z,3.10
2023-05-20T08:23:53.336Z,3.40
2023-05-20T08:24:53.623Z,2.80
2023-05-20T08:25:53.940Z,3.10
2023-05-20T08:26:54.276Z,3.30
2023-05-20T08:27:54.567Z,3.50
2023-05-20T08:28:54.906Z,3.00
2023-05-20T08:29:55.206Z,3.10
2023-05-20T08:30:55.562Z,3.00
2023-05-20T08:31:55.830Z,3.20
2023-05-20T08:32:56.215Z,3.00
2023-05-20T08:33:56.375Z,3.30
2023-05-20T08:34:56.682Z,3.20
2023-05-20T08:35:56.996Z,3.30
2023-05-20T08:36:57.308Z,3.00
2023-05-20T08:37:57.595Z,3.20
2023-05-20T08:38:57.931Z,3.20
2023-05-20T08:39:58.228Z,2.90
2023-05-20T08:40:58.559Z,3.20
2023-05-20T08:41:58.874Z,2.80
2023-05-20T08:42:59.247Z,3.10
2023-05-20T08:43:59.400Z,3.20
2023-05-20T08:44:59.716Z,2.90
2023-05-20T08:46:00.077Z,3.20
2023-05-20T08:47:00.410Z,3.00
2023-05-20T08:48:00.646Z,3.00
2023-05-20T08:49:00.940Z,3.10
2023-05-20T08:50:01.251Z,3.30
2023-05-20T08:51:01.577Z,3.40
2023-05-20T08:52:01.899Z,2.90
2023-05-20T08:53:02.214Z,2.90
2023-05-20T08:54:02.535Z,3.00
2023-05-20T08:55:02.890Z,2.70
2023-05-20T08:56:03.763Z,2.80
2023-05-20T08:57:03.529Z,2.80
2023-05-20T08:58:03.828Z,3.20
2023-05-20T08:59:04.135Z,2.70
2023-05-20T09:00:04.444Z,2.80
2023-05-20T09:01:04.771Z,2.70
2023-05-20T09:02:05.069Z,2.90
2023-05-20T09:03:05.443Z,2.80
2023-05-20T09:04:05.605Z,3.20
2023-05-20T09:05:05.968Z,3.00
2023-05-20T09:06:06.122Z,2.60
2023-05-20T09:07:06.447Z,2.90
2023-05-20T09:08:06.725Z,2.90
2023-05-20T09:09:07.034Z,2.90
2023-05-20T09:10:07.331Z,3.10
2023-05-20T09:11:07.654Z,2.90
2023-05-20T09:12:07.941Z,2.70
2023-05-20T09:13:08.249Z,3.20
2023-05-20T09:14:08.554Z,3.40
2023-05-20T09:15:08.847Z,3.00
2023-05-20T09:16:09.196Z,2.70
2023-05-20T09:17:09.480Z,2.70
2023-05-20T09:18:09.832Z,2.90
2023-05-20T09:19:10.153Z,2.90
2023-05-20T09:20:10.397Z,3.00
2023-05-20T09:21:10.717Z,2.70
2023-05-20T09:22:11.014Z,2.80
2023-05-20T09:23:11.289Z,2.70
2023-05-20T09:24:11.522Z,2.70
2023-05-20T09:25:11.842Z,2.90
2023-05-20T09:26:12.160Z,2.50
2023-05-20T09:27:12.487Z,2.60
2023-05-20T09:28:12.821Z,2.80
2023-05-20T09:29:13.158Z,2.90
2023-05-20T09:30:13.402Z,2.80
2023-05-20T09:31:13.737Z,2.90
2023-05-20T09:32:14.025Z,2.90
2023-05-20T09:33:14.315Z,3.00
2023-05-20T09:34:14.627Z,2.70
2023-05-20T09:35:14.947Z,2.80
2023-05-20T09:36:16.666Z,2.80
2023-05-20T09:37:15.541Z,2.90
2023-05-20T09:38:15.850Z,2.90
2023-05-20T09:39:16.177Z,2.60
2023-05-20T09:40:16.485Z,2.90
2023-05-20T09:41:16.834Z,3.00
2023-05-20T09:42:17.131Z,2.90
2023-05-20T09:43:17.452Z,2.90
2023-05-20T09:44:17.735Z,3.00
2023-05-20T09:45:18.048Z,2.60
2023-05-20T09:46:18.384Z,2.90
2023-05-20T09:47:18.671Z,2.80
2023-05-20T09:48:18.969Z,2.80
2023-05-20T09:49:19.260Z,2.50
2023-05-20T09:50:19.562Z,2.90
2023-05-20T09:51:19.860Z,3.00
2023-05-20T09:52:21.418Z,2.90
2023-05-20T09:53:20.447Z,3.10
2023-05-20T09:54:20.755Z,2.60
2023-05-20T09:55:21.094Z,2.80
2023-05-20T09:56:21.384Z,2.60
2023-05-20T09:57:21.694Z,3.00
2023-05-20T09:58:22.036Z,3.00
2023-05-20T09:59:22.331Z,3.00
2023-05-20T10:00:22.628Z,2.70
2023-05-20T10:01:22.962Z,3.00
2023-05-20T10:02:23.329Z,3.00
2023-05-20T10:03:23.557Z,3.30
2023-05-20T10:04:23.701Z,3.00
2023-05-20T10:05:24.030Z,3.00
2023-05-20T10:06:24.328Z,2.60
2023-05-20T10:07:37.928Z,2.80
2023-05-20T10:08:25.922Z,2.60
2023-05-20T10:09:25.187Z,2.90
2023-05-20T10:10:25.479Z,3.00
2023-05-20T10:11:25.776Z,2.80
2023-05-20T10:12:26.047Z,2.90
2023-05-20T10:13:26.372Z,3.10
2023-05-20T10:14:26.683Z,2.80
2023-05-20T10:15:26.975Z,2.70
2023-05-20T10:16:27.308Z,3.10
2023-05-20T10:17:27.604Z,3.20
2023-05-20T10:18:27.887Z,2.90
2023-05-20T10:19:28.960Z,2.90
2023-05-20T10:20:28.488Z,2.60
2023-05-20T10:21:28.793Z,2.80
2023-05-20T10:22:29.082Z,2.80
2023-05-20T10:23:29.380Z,2.80
2023-05-20T10:24:29.684Z,2.70
2023-05-20T10:25:30.036Z,2.80
2023-05-20T10:26:30.224Z,2.80
2023-05-20T10:27:30.545Z,2.90
2023-05-20T10:28:30.812Z,3.00
2023-05-20T10:29:31.126Z,3.00
2023-05-20T10:30:31.430Z,2.60
2023-05-20T10:31:31.726Z,2.90
2023-05-20T10:32:32.171Z,3.00
2023-05-20T10:33:32.418Z,2.70
2023-05-20T10:34:32.588Z,2.60
2023-05-20T10:35:32.906Z,3.00
2023-05-20T10:36:33.216Z,2.80
2023-05-20T10:37:33.541Z,2.70
2023-05-20T10:38:33.834Z,3.00
2023-05-20T10:39:34.182Z,2.60
2023-05-20T10:40:34.753Z,3.00
2023-05-20T10:41:34.716Z,2.90
2023-05-20T10:42:35.054Z,3.00
2023-05-20T10:43:35.360Z,3.20
2023-05-20T10:44:35.657Z,3.10
2023-05-20T10:45:35.962Z,2.70
2023-05-20T10:46:53.948Z,2.50
2023-05-20T10:47:37.682Z,2.90
2023-05-20T10:48:36.878Z,3.00
2023-05-20T10:49:37.068Z,2.70
2023-05-20T10:50:37.409Z,3.00
2023-05-20T10:51:37.699Z,2.80
2023-05-20T10:52:37.985Z,3.00
2023-05-20T10:53:38.302Z,2.80
2023-05-20T10:54:38.612Z,3.10
2023-05-20T10:55:38.934Z,3.10
2023-05-20T10:56:39.216Z,3.00
2023-05-20T10:57:39.561Z,2.50
2023-05-20T10:58:39.733Z,2.90
2023-05-20T10:59:40.051Z,3.30
2023-05-20T11:00:40.393Z,2.90
2023-05-20T11:01:40.784Z,2.90
2023-05-20T11:02:40.953Z,3.10
2023-05-20T11:03:41.237Z,2.90
2023-05-20T11:04:41.359Z,2.70
2023-05-20T11:05:41.662Z,3.30
2023-05-20T11:06:41.987Z,3.20
2023-05-20T11:07:42.297Z,2.80
2023-05-20T11:08:42.595Z,3.00
2023-05-20T11:09:42.895Z,3.00
2023-05-20T11:10:43.162Z,2.90
2023-05-20T11:11:43.470Z,2.90
2023-05-20T11:12:43.814Z,2.70
2023-05-20T11:13:44.186Z,2.70
2023-05-20T11:14:44.333Z,2.70
2023-05-20T11:15:44.642Z,2.80
2023-05-20T11:16:44.992Z,3.10
2023-05-20T11:17:45.333Z,2.80
2023-05-20T11:18:45.641Z,3.10
2023-05-20T11:19:45.932Z,2.90
2023-05-20T11:20:46.237Z,3.00
2023-05-20T11:21:46.540Z,2.70
2023-05-20T11:22:46.850Z,3.10
2023-05-20T11:23:47.173Z,2.80
2023-05-20T11:24:47.512Z,2.60
2023-05-20T11:25:47.800Z,2.80
2023-05-20T11:26:48.108Z,3.10
2023-05-20T11:27:48.402Z,2.90
2023-05-20T11:28:48.720Z,3.00
2023-05-20T11:29:49.012Z,3.20
2023-05-20T11:30:49.337Z,2.90
2023-05-20T11:31:49.699Z,2.90
2023-05-20T11:32:50.059Z,3.10
2023-05-20T11:33:50.209Z,2.70
2023-05-20T11:34:50.516Z,3.10
2023-05-20T11:35:50.822Z,2.90
2023-05-20T11:36:51.140Z,2.80
2023-05-20T11:37:51.444Z,2.70
2023-05-20T11:38:51.810Z,3.30
2023-05-20T11:39:52.836Z,3.50
2023-05-20T11:40:52.401Z,3.30
2023-05-20T11:41:52.679Z,3.10
2023-05-20T11:42:52.993Z,3.20
2023-05-20T11:43:53.368Z,3.20
2023-05-20T11:44:53.577Z,2.90
2023-05-20T11:45:53.890Z,3.10
2023-05-20T11:46:54.192Z,3.20
2023-05-20T11:47:54.514Z,3.10
2023-05-20T11:48:54.821Z,2.70
2023-05-20T11:49:55.104Z,3.10
2023-05-20T11:50:55.420Z,2.70
2023-05-20T11:51:55.732Z,3.40
2023-05-20T11:52:56.059Z,2.90
2023-05-20T11:53:56.367Z,3.20
2023-05-20T11:54:56.686Z,2.80
2023-05-20T11:55:57.015Z,3.10
2023-05-20T11:56:57.338Z,3.20
2023-05-20T11:57:57.649Z,3.20
2023-05-20T11:58:57.976Z,3.10
2023-05-20T11:59:58.281Z,2.90
2023-05-20T12:01:05.634Z,3.40
2023-05-20T12:01:59.849Z,3.10
2023-05-20T12:02:59.327Z,3.00
2023-05-20T12:03:59.578Z,2.90
2023-05-20T12:04:59.865Z,2.90
2023-05-20T12:06:00.165Z,3.00
2023-05-20T12:07:00.481Z,3.30
2023-05-20T12:08:00.802Z,3.30
2023-05-20T12:09:01.077Z,3.10
2023-05-20T12:10:01.378Z,3.20
2023-05-20T12:11:01.715Z,3.40
2023-05-20T12:12:02.008Z,3.00
2023-05-20T12:13:02.316Z,2.80
2023-05-20T12:14:02.622Z,3.10
2023-05-20T12:15:02.932Z,3.10
2023-05-20T12:16:03.277Z,3.10
2023-05-20T12:17:03.648Z,3.20
2023-05-20T12:18:03.961Z,3.20
2023-05-20T12:19:04.357Z,3.40
2023-05-20T12:20:04.585Z,3.30
2023-05-20T12:21:04.859Z,3.20
2023-05-20T12:22:05.165Z,2.60
2023-05-20T12:23:05.431Z,3.00
2023-05-20T12:24:05.708Z,3.10
2023-05-20T12:25:06.018Z,3.20
2023-05-20T12:26:06.319Z,3.10
2023-05-20T12:27:06.648Z,3.10
2023-05-20T12:28:06.940Z,3.10
2023-05-20T12:29:07.224Z,3.00
2023-05-20T12:30:07.524Z,2.90
2023-05-20T12:31:07.875Z,3.20
2023-05-20T12:32:08.245Z,3.40
2023-05-20T12:33:08.583Z,3.30
2023-05-20T12:34:08.872Z,3.40
2023-05-20T12:35:09.164Z,3.30
2023-05-20T12:36:09.438Z,3.10
2023-05-20T12:37:09.749Z,2.80
2023-05-20T12:38:10.079Z,3.10
2023-05-20T12:39:10.502Z,3.20
2023-05-20T12:40:10.749Z,3.10
2023-05-20T12:41:11.052Z,3.10
2023-05-20T12:42:11.377Z,3.20
2023-05-20T12:43:11.680Z,3.10
2023-05-20T12:44:11.998Z,3.10
2023-05-20T12:45:12.326Z,3.00
2023-05-20T12:46:12.716Z,2.90
2023-05-20T12:47:12.949Z,3.20
2023-05-20T12:48:13.361Z,3.30
2023-05-20T12:49:13.449Z,3.20
2023-05-20T12:50:13.786Z,3.20
2023-05-20T12:51:14.085Z,3.60
2023-05-20T12:52:22.369Z,3.10
2023-05-20T12:53:15.697Z,3.40
2023-05-20T12:54:14.960Z,3.10
2023-05-20T12:55:15.267Z,3.40
2023-05-20T12:56:15.584Z,3.00
2023-05-20T12:57:15.920Z,3.10
2023-05-20T12:58:16.216Z,2.90
2023-05-20T12:59:16.523Z,3.10
2023-05-20T13:00:16.850Z,3.10
2023-05-20T13:01:17.194Z,3.20
2023-05-20T13:02:17.490Z,3.30
2023-05-20T13:03:18.064Z,3.20
2023-05-20T13:04:18.093Z,2.80
2023-05-20T13:05:18.384Z,3.00
2023-05-20T13:06:18.688Z,2.90
2023-05-20T13:07:18.962Z,2.80
2023-05-20T13:08:19.263Z,3.20
2023-05-20T13:09:19.575Z,3.50
2023-05-20T13:10:19.904Z,3.10
2023-05-20T13:11:20.186Z,3.10
2023-05-20T13:12:20.457Z,3.40
2023-05-20T13:13:20.776Z,3.00
2023-05-20T13:14:21.095Z,3.50
2023-05-20T13:15:21.409Z,2.80
2023-05-20T13:16:21.769Z,3.20
2023-05-20T13:17:22.074Z,2.90
2023-05-20T13:18:22.399Z,3.00
2023-05-20T13:19:22.825Z,3.20
2023-05-20T13:20:22.970Z,3.20
2023-05-20T13:21:23.262Z,2.90
2023-05-20T13:22:23.593Z,2.90